KFHU/FHU METAR and TAF weather

Enter ICAO airport designator
Station Type Date Time Source
KFHU METAR 2023/02/05 23:55 UTC NOAA

KFHU 052355Z AUTO 25017G22KT 10SM CLR 21/M18 A3010 RMK AO2 SLP156 T02131178 10238 20195 55010


Station Type Date Time Source
KFHU Decoded METAR 2023/02/05 23:55 UTC NOAA

Fort Huachuca, Libby AAF Ft Huachuca, AZ, United States (KFHU) 46-98N 110-20W
Feb 05, 2023 - 06:55 PM EST / 2023.02.05 2355 UTC
Wind: from the WSW (250 degrees) at 20 MPH (17 KT) gusting to 25 MPH (22 KT):0
Visibility: 10 mile(s):0
Sky conditions: clear
Temperature: 70.3 F (21.3 C)
Dew Point: -0.0 F (-17.8 C)
Relative Humidity: 5%
Pressure (altimeter): 30.1 in. Hg (1019 hPa)
Pressure tendency: 0.03 inches (1.0 hPa) lower than three hours ago
ob: KFHU 052355Z AUTO 25017G22KT 10SM CLR 21/M18 A3010 RMK AO2 SLP156 T02131178 10238 20195 55010
cycle: 0

Station Type Date Time Source
KFHU TAF 2023/02/04 15:54 UTC NOAA

TAF KFHU 041500Z 0415/0521 VRB06KT 9999 SKC QNH3020INS TX22/0421Z TN06/0513Z

Example: see airport list